Time;durP1;ratioP1;P1;durP2;ratioP2;P2;SDS_P1;SDS_P2;PMS_P1;PMS_P2;Temp;Humidity;BMP_temperature;BMP_pressure;BME280_temperature;BME280_humidity;BME280_pressure;Samples;Min_cycle;Max_cycle;Signal;HPM_P1;HPM_P2
2023/03/29 00:01:31;;;;;;;15.18;3.08;;;;;;;-1.03;100.00;101495.41;6247569;23;20404;-71
2023/03/29 00:04:04;;;;;;;17.42;3.42;;;;;;;-1.13;100.00;101487.03;6245847;23;20024;-70
2023/03/29 00:06:32;;;;;;;16.42;3.15;;;;;;;-1.09;100.00;101488.63;6241225;23;20019;-70
2023/03/29 00:09:00;;;;;;;12.98;2.92;;;;;;;-1.17;100.00;101474.94;6239819;23;20024;-69
2023/03/29 00:11:27;;;;;;;15.43;3.22;;;;;;;-1.17;100.00;101482.81;6239819;23;20016;-69
2023/03/29 00:13:53;;;;;;;13.65;2.92;;;;;;;-1.15;100.00;101479.22;6240371;23;20445;-70
2023/03/29 00:16:20;;;;;;;9.73;3.33;;;;;;;-1.08;100.00;101469.28;6239735;23;20099;-70
2023/03/29 00:18:47;;;;;;;13.40;3.40;;;;;;;-1.17;100.00;101473.16;6240636;23;20119;-71
2023/03/29 00:21:13;;;;;;;13.07;3.40;;;;;;;-1.20;100.00;101469.78;6238858;23;20024;-70
2023/03/29 00:23:40;;;;;;;17.63;3.10;;;;;;;-1.22;100.00;101467.25;6241145;23;20495;-69
2023/03/29 00:26:07;;;;;;;11.80;3.03;;;;;;;-1.28;100.00;101456.13;6240647;23;20028;-69
2023/03/29 00:28:34;;;;;;;8.70;2.97;;;;;;;-1.27;100.00;101448.13;6241386;22;20123;-71
2023/03/29 00:31:10;;;;;;;13.52;3.28;;;;;;;-1.29;100.00;101449.16;6240112;23;20016;-71
2023/03/29 00:33:38;;;;;;;16.58;3.70;;;;;;;-1.29;100.00;101454.41;6239103;23;20021;-69
2023/03/29 00:36:05;;;;;;;12.00;3.13;;;;;;;-1.29;100.00;101454.41;6241574;23;20376;-69
2023/03/29 00:38:32;;;;;;;12.25;3.60;;;;;;;-1.41;100.00;101450.50;6233811;23;20441;-69
2023/03/29 00:40:59;;;;;;;15.10;2.85;;;;;;;-1.41;100.00;101451.34;6240232;23;20354;-69
2023/03/29 00:43:26;;;;;;;11.00;2.78;;;;;;;-1.36;100.00;101443.28;6240494;23;20027;-69
2023/03/29 00:45:53;;;;;;;16.45;3.15;;;;;;;-1.38;100.00;101448.59;6237720;23;20024;-69
2023/03/29 00:48:24;;;;;;;10.82;2.90;;;;;;;-1.34;100.00;101448.47;6239722;23;20082;-69
2023/03/29 00:50:56;;;;;;;21.08;3.13;;;;;;;-1.35;100.00;101438.88;6240427;23;20022;-70
2023/03/29 00:53:34;;;;;;;18.20;3.65;;;;;;;-1.32;100.00;101438.75;6239576;23;20098;-70
2023/03/29 00:56:18;;;;;;;9.90;2.85;;;;;;;-1.40;100.00;101437.31;6239123;23;20095;-70
2023/03/29 00:59:05;;;;;;;10.85;3.25;;;;;;;-1.51;100.00;101434.25;6239711;23;20016;-69
2023/03/29 01:01:41;;;;;;;14.52;3.20;;;;;;;-1.48;100.00;101434.13;6234936;23;20323;-70
2023/03/29 01:04:17;;;;;;;9.60;2.63;;;;;;;-1.34;100.00;101430.91;6239285;23;20050;-69
2023/03/29 01:07:30;;;;;;;14.77;3.10;;;;;;;-1.46;100.00;101424.41;6240811;23;20730;-70
2023/03/29 01:10:08;;;;;;;11.68;2.60;;;;;;;-1.49;100.00;101415.78;6240425;23;20322;-69
2023/03/29 01:12:40;;;;;;;12.68;3.03;;;;;;;-1.36;100.00;101418.75;6239177;23;20356;-69
2023/03/29 01:15:12;;;;;;;14.88;2.67;;;;;;;-1.63;100.00;101416.38;6239366;23;20030;-69
2023/03/29 01:17:42;;;;;;;8.75;3.13;;;;;;;-1.49;100.00;101407.88;6240361;23;20024;-70
2023/03/29 01:20:29;;;;;;;16.08;2.65;;;;;;;-1.48;100.00;101406.97;6238927;22;20348;-69
2023/03/29 01:23:15;;;;;;;11.23;2.55;;;;;;;-1.49;100.00;101395.56;6239453;23;20092;-69
2023/03/29 01:26:03;;;;;;;9.90;3.00;;;;;;;-1.48;100.00;101388.53;6238305;23;20027;-70
2023/03/29 01:28:37;;;;;;;10.43;2.88;;;;;;;-1.53;100.00;101386.13;6234407;22;20020;-69
2023/03/29 01:31:10;;;;;;;14.65;3.17;;;;;;;-1.45;100.00;101381.34;6240503;22;20099;-71
2023/03/29 01:33:52;;;;;;;13.05;3.03;;;;;;;-1.42;100.00;101380.38;6241130;22;20043;-71
2023/03/29 01:36:33;;;;;;;16.10;3.22;;;;;;;-1.52;100.00;101374.66;6240737;23;20027;-69
2023/03/29 01:39:05;;;;;;;10.32;2.78;;;;;;;-1.52;100.00;101368.53;6241252;23;20027;-70
2023/03/29 01:41:50;;;;;;;13.52;3.00;;;;;;;-1.52;100.00;101363.28;6240886;22;20475;-70
2023/03/29 01:44:25;;;;;;;7.57;2.25;;;;;;;-1.37;100.00;101362.59;6239892;23;20043;-70
2023/03/29 01:47:01;;;;;;;11.98;2.53;;;;;;;-1.40;100.00;101357.50;6241314;23;20026;-71
2023/03/29 01:49:36;;;;;;;16.38;3.25;;;;;;;-1.33;100.00;101358.94;6240119;23;20028;-71
2023/03/29 01:52:24;;;;;;;7.45;2.75;;;;;;;-1.35;100.00;101350.22;6240982;23;20026;-70
2023/03/29 01:55:01;;;;;;;9.50;3.00;;;;;;;-1.24;100.00;101352.38;6235676;23;20020;-70
2023/03/29 01:57:31;;;;;;;17.38;3.28;;;;;;;-1.23;100.00;101344.44;6240652;23;20024;-69
2023/03/29 02:00:05;;;;;;;8.57;2.63;;;;;;;-1.26;100.00;101338.47;6240634;23;20036;-69
2023/03/29 02:02:32;;;;;;;10.65;2.72;;;;;;;-1.26;100.00;101341.09;6236048;23;20326;-69
2023/03/29 02:05:00;;;;;;;13.73;2.85;;;;;;;-1.25;100.00;101342.78;6241428;23;20024;-70
2023/03/29 02:07:29;;;;;;;18.73;3.33;;;;;;;-1.27;100.00;101336.72;6238817;23;20442;-69
2023/03/29 02:09:57;;;;;;;19.52;3.20;;;;;;;-1.35;100.00;101344.97;6239875;23;20024;-70
2023/03/29 02:12:24;;;;;;;10.77;2.92;;;;;;;-1.38;100.00;101332.78;6241136;23;20043;-69
2023/03/29 02:14:50;;;;;;;13.65;2.70;;;;;;;-1.34;100.00;101328.25;6241667;23;20040;-69
2023/03/29 02:17:26;;;;;;;13.55;2.75;;;;;;;-1.43;100.00;101333.94;6241472;23;20365;-69
2023/03/29 02:20:22;;;;;;;9.75;3.05;;;;;;;-1.33;100.00;101323.81;6241745;23;21628;-70
2023/03/29 02:23:03;;;;;;;11.52;2.45;;;;;;;-1.41;100.00;101325.03;6240924;23;20023;-69
2023/03/29 02:25:31;;;;;;;12.90;2.80;;;;;;;-1.45;100.00;101318.19;6242087;22;20024;-69
2023/03/29 02:27:59;;;;;;;14.85;3.25;;;;;;;-1.46;100.00;101305.13;6241000;22;20055;-69
2023/03/29 02:30:39;;;;;;;11.35;3.33;;;;;;;-1.42;100.00;101302.28;6240572;23;20091;-69
2023/03/29 02:33:15;;;;;;;11.05;2.58;;;;;;;-1.55;100.00;101301.09;6240472;23;20024;-69
2023/03/29 02:35:57;;;;;;;25.67;3.05;;;;;;;-1.55;100.00;101295.84;6234465;23;20044;-69
2023/03/29 02:38:26;;;;;;;12.63;2.38;;;;;;;-1.53;100.00;101287.91;6242514;23;20051;-69
2023/03/29 02:40:56;;;;;;;17.55;3.22;;;;;;;-1.63;100.00;101288.31;6240239;23;20030;-70
2023/03/29 02:43:24;;;;;;;9.35;2.47;;;;;;;-1.63;100.00;101285.66;6241091;23;20099;-69
2023/03/29 02:45:52;;;;;;;20.20;2.88;;;;;;;-1.66;100.00;101284.94;6241250;23;20100;-69
2023/03/29 02:48:22;;;;;;;15.05;3.03;;;;;;;-1.54;100.00;101283.53;6240913;23;20030;-69
2023/03/29 02:50:54;;;;;;;19.50;2.42;;;;;;;-1.64;100.00;101285.75;6241966;23;20036;-69
2023/03/29 02:53:41;;;;;;;10.68;2.97;;;;;;;-1.65;100.00;101282.25;6241056;22;20030;-69
2023/03/29 02:56:08;;;;;;;14.90;3.28;;;;;;;-1.74;100.00;101272.13;6241537;23;20028;-70
2023/03/29 02:58:35;;;;;;;14.20;3.13;;;;;;;-1.71;100.00;101272.00;6241795;23;20043;-69
2023/03/29 03:01:05;;;;;;;9.85;2.83;;;;;;;-1.71;100.00;101268.53;6242035;23;20016;-69
2023/03/29 03:03:32;;;;;;;14.02;3.25;;;;;;;-1.74;100.00;101266.88;6241653;23;20055;-70
2023/03/29 03:06:00;;;;;;;9.50;2.58;;;;;;;-1.77;100.00;101264.38;6241469;23;20327;-68
2023/03/29 03:08:27;;;;;;;9.35;2.90;;;;;;;-1.79;100.00;101258.31;6241184;23;20103;-70
2023/03/29 03:10:54;;;;;;;18.45;2.90;;;;;;;-1.79;100.00;101268.00;6241517;23;20020;-70
2023/03/29 03:13:20;;;;;;;10.25;2.88;;;;;;;-1.80;100.00;101258.41;6241203;23;20038;-69
2023/03/29 03:15:48;;;;;;;10.18;2.97;;;;;;;-1.89;100.00;101257.00;6242143;23;20016;-71
2023/03/29 03:18:15;;;;;;;19.65;3.83;;;;;;;-1.86;100.00;101252.47;6240987;23;20453;-69
2023/03/29 03:20:45;;;;;;;12.63;3.33;;;;;;;-1.80;100.00;101248.72;6241014;23;20031;-69
2023/03/29 03:23:11;;;;;;;18.13;3.42;;;;;;;-1.86;100.00;101247.22;6241456;23;20028;-71
2023/03/29 03:25:38;;;;;;;12.27;2.80;;;;;;;-1.86;100.00;101249.84;6241964;23;20059;-69
2023/03/29 03:28:05;;;;;;;18.40;4.07;;;;;;;-1.83;100.00;101245.38;6241626;22;20107;-70
2023/03/29 03:30:32;;;;;;;12.40;3.03;;;;;;;-1.81;100.00;101243.56;6242062;23;20030;-70
2023/03/29 03:32:59;;;;;;;16.38;3.00;;;;;;;-1.89;100.00;101242.13;6241061;23;20024;-70
2023/03/29 03:35:25;;;;;;;12.30;3.05;;;;;;;-2.00;100.00;101238.22;6241197;23;20016;-70
2023/03/29 03:37:52;;;;;;;18.55;3.75;;;;;;;-2.02;100.00;101230.41;6241494;23;20024;-70
2023/03/29 03:40:19;;;;;;;17.42;3.40;;;;;;;-1.96;100.00;101235.38;6240772;23;20027;-69
2023/03/29 03:42:46;;;;;;;9.98;2.95;;;;;;;-2.00;100.00;101231.19;6241075;23;20020;-70
2023/03/29 03:45:12;;;;;;;10.70;2.70;;;;;;;-2.00;100.00;101228.56;6241169;23;20103;-70
2023/03/29 03:47:39;;;;;;;19.10;3.78;;;;;;;-2.07;100.00;101229.75;6241292;23;20457;-69
2023/03/29 03:50:07;;;;;;;15.73;3.55;;;;;;;-2.04;100.00;101229.63;6240059;23;20032;-69
2023/03/29 03:52:34;;;;;;;21.25;3.72;;;;;;;-2.14;100.00;101228.31;6241551;23;20445;-69
2023/03/29 03:55:03;;;;;;;14.18;3.95;;;;;;;-2.06;100.00;101230.59;6241726;23;20023;-69
2023/03/29 03:57:31;;;;;;;11.35;3.20;;;;;;;-2.02;100.00;101226.94;6239828;23;20066;-69
2023/03/29 03:59:58;;;;;;;15.05;3.15;;;;;;;-2.01;100.00;101224.22;6240582;23;20032;-69
2023/03/29 04:02:25;;;;;;;9.95;3.22;;;;;;;-2.04;100.00;101221.72;6200435;23;20034;-68
2023/03/29 04:04:53;;;;;;;13.63;3.80;;;;;;;-2.04;100.00;101223.50;6240537;23;20505;-69
2023/03/29 04:07:20;;;;;;;11.52;3.22;;;;;;;-2.04;100.00;101221.72;6241292;23;20070;-69
2023/03/29 04:09:46;;;;;;;13.00;3.60;;;;;;;-2.03;100.00;101226.06;6239447;23;20022;-69
2023/03/29 04:12:13;;;;;;;14.73;3.35;;;;;;;-2.15;100.00;101222.22;6240824;23;20404;-69
2023/03/29 04:14:39;;;;;;;11.98;3.55;;;;;;;-2.13;100.00;101222.13;6239768;23;20024;-69
2023/03/29 04:17:06;;;;;;;19.65;4.03;;;;;;;-2.15;100.00;101222.22;6240660;23;20028;-69
2023/03/29 04:19:32;;;;;;;14.88;3.83;;;;;;;-2.15;100.00;101218.72;6241149;23;20066;-70
2023/03/29 04:21:59;;;;;;;17.15;4.28;;;;;;;-2.19;100.00;101212.75;6230505;23;20038;-69
2023/03/29 04:24:25;;;;;;;24.85;4.35;;;;;;;-2.16;100.00;101214.41;6240177;23;20035;-69
2023/03/29 04:26:52;;;;;;;11.45;3.58;;;;;;;-2.17;100.00;101215.28;6240154;23;20027;-69
2023/03/29 04:29:18;;;;;;;13.45;3.90;;;;;;;-2.19;100.00;101217.16;6240073;22;20099;-69
2023/03/29 04:31:45;;;;;;;17.35;4.30;;;;;;;-2.13;100.00;101206.34;6240671;23;20024;-69
2023/03/29 04:34:11;;;;;;;16.55;4.13;;;;;;;-2.25;100.00;101217.41;6209951;23;20028;-69
2023/03/29 04:36:38;;;;;;;10.68;3.22;;;;;;;-2.09;100.00;101215.84;6183768;23;20039;-70
2023/03/29 04:39:06;;;;;;;12.93;4.50;;;;;;;-2.25;100.00;101210.38;6210838;23;20029;-70
2023/03/29 04:41:33;;;;;;;12.57;3.92;;;;;;;-2.26;100.00;101202.56;6209680;23;20021;-70
2023/03/29 04:44:02;;;;;;;16.10;3.67;;;;;;;-2.31;100.00;101210.63;6208022;23;20021;-68
2023/03/29 04:46:29;;;;;;;19.88;6.03;;;;;;;-2.25;100.00;101206.91;6209881;23;20020;-71
2023/03/29 04:48:56;;;;;;;13.75;4.45;;;;;;;-2.25;100.00;101210.38;6212242;23;20032;-69
2023/03/29 04:51:23;;;;;;;17.65;4.68;;;;;;;-2.23;100.00;101205.06;6211510;23;20441;-70
2023/03/29 04:53:50;;;;;;;14.60;4.97;;;;;;;-2.22;100.00;101205.00;6196572;23;20025;-69
2023/03/29 04:56:16;;;;;;;16.00;4.72;;;;;;;-2.24;100.00;101206.81;6183956;23;20029;-68
2023/03/29 04:58:43;;;;;;;14.30;5.60;;;;;;;-2.19;100.00;101199.59;6182685;23;20024;-68
2023/03/29 05:01:10;;;;;;;12.88;4.00;;;;;;;-2.24;100.00;101203.34;6210809;23;20028;-68
2023/03/29 05:03:36;;;;;;;14.25;4.35;;;;;;;-2.27;100.00;101199.06;6210802;23;20020;-69
2023/03/29 05:06:05;;;;;;;16.05;4.50;;;;;;;-2.25;100.00;101188.50;6185378;23;20028;-69
2023/03/29 05:08:33;;;;;;;12.95;4.20;;;;;;;-2.22;100.00;101186.59;6210099;23;20082;-69
2023/03/29 05:11:00;;;;;;;15.85;4.43;;;;;;;-2.23;100.00;101181.41;6210246;23;20116;-68
2023/03/29 05:13:27;;;;;;;19.35;4.75;;;;;;;-2.12;100.00;101184.44;6182121;23;20075;-68
2023/03/29 05:15:55;;;;;;;20.13;4.78;;;;;;;-2.18;100.00;101179.44;6208332;23;20024;-68
2023/03/29 05:18:22;;;;;;;15.57;4.47;;;;;;;-2.27;100.00;101179.81;6209450;23;20103;-68
2023/03/29 05:20:51;;;;;;;18.25;4.95;;;;;;;-2.14;100.00;101181.00;6209975;23;20044;-70
2023/03/29 05:23:19;;;;;;;15.63;4.38;;;;;;;-2.04;100.00;101174.41;6210503;23;20031;-69
2023/03/29 05:25:49;;;;;;;16.35;3.85;;;;;;;-2.08;100.00;101180.72;6209518;23;20112;-69
2023/03/29 05:28:17;;;;;;;17.83;4.80;;;;;;;-2.04;100.00;101176.19;6210424;23;20369;-69
2023/03/29 05:30:44;;;;;;;13.45;4.40;;;;;;;-1.93;100.00;101169.53;6209574;23;20033;-70
2023/03/29 05:33:11;;;;;;;12.25;4.30;;;;;;;-1.83;100.00;101179.63;6227611;23;20027;-69
2023/03/29 05:35:37;;;;;;;16.40;4.78;;;;;;;-1.89;100.00;101178.13;6240217;23;20477;-69
2023/03/29 05:38:05;;;;;;;13.52;4.40;;;;;;;-1.83;100.00;101169.13;6240552;23;20024;-69
2023/03/29 05:40:32;;;;;;;20.25;5.72;;;;;;;-1.80;100.00;101168.97;6241571;23;20022;-69
2023/03/29 05:43:01;;;;;;;14.32;4.57;;;;;;;-1.78;100.00;101172.38;6240945;23;20035;-69
2023/03/29 05:45:28;;;;;;;12.75;4.93;;;;;;;-1.79;100.00;101163.63;6239974;23;20020;-69
2023/03/29 05:47:56;;;;;;;16.88;4.20;;;;;;;-1.83;100.00;101159.44;6241359;23;20028;-69
2023/03/29 05:50:23;;;;;;;14.63;5.10;;;;;;;-1.80;100.00;101155.84;6239778;23;20457;-69
2023/03/29 05:52:50;;;;;;;13.93;4.70;;;;;;;-1.78;100.00;101167.13;6243025;23;20050;-70
2023/03/29 05:55:17;;;;;;;19.73;4.57;;;;;;;-1.70;100.00;101165.00;6239097;23;20032;-68
2023/03/29 05:57:44;;;;;;;16.10;4.28;;;;;;;-1.68;100.00;101164.03;6240544;23;20406;-71
2023/03/29 06:00:35;;;;;;;19.02;5.10;;;;;;;-1.72;100.00;101166.84;6243045;23;20048;-71
2023/03/29 06:02:57;;;;;;;19.35;4.75;;;;;;;-1.63;100.00;101161.16;6241969;23;20087;-71
2023/03/29 06:05:35;;;;;;;14.73;4.38;;;;;;;-1.65;100.00;101163.00;6241409;23;20023;-71
2023/03/29 06:08:02;;;;;;;15.73;4.10;;;;;;;-1.55;100.00;101161.66;6233889;23;20319;-71
2023/03/29 06:10:28;;;;;;;19.27;4.95;;;;;;;-1.51;100.00;101159.72;6241938;23;20034;-71
2023/03/29 06:12:55;;;;;;;19.63;4.75;;;;;;;-1.29;100.00;101160.44;6241695;23;20525;-72
2023/03/29 06:15:23;;;;;;;22.67;4.65;;;;;;;-1.27;100.00;101162.97;6241725;23;20097;-71
2023/03/29 06:17:49;;;;;;;18.90;4.38;;;;;;;-1.29;100.00;101167.50;6237598;23;20106;-71
2023/03/29 06:20:17;;;;;;;14.20;4.40;;;;;;;-1.28;100.00;101158.66;6241905;23;20038;-71
2023/03/29 06:22:46;;;;;;;13.18;4.57;;;;;;;-1.05;100.00;101157.56;6240792;23;20523;-71
2023/03/29 06:25:14;;;;;;;21.95;6.55;;;;;;;-1.01;100.00;101154.69;6242169;23;20071;-71
2023/03/29 06:27:40;;;;;;;16.45;4.22;;;;;;;-1.06;100.00;101167.22;6242757;22;20090;-71
2023/03/29 06:30:07;;;;;;;16.75;5.28;;;;;;;-1.14;100.00;101161.47;6241890;23;20048;-70
2023/03/29 06:32:34;;;;;;;19.52;4.43;;;;;;;-1.11;100.00;101156.06;6238583;23;20024;-71
2023/03/29 06:35:03;;;;;;;12.57;3.92;;;;;;;-1.03;100.00;101159.16;6241716;23;20103;-71
2023/03/29 06:37:31;;;;;;;21.45;4.75;;;;;;;-1.02;100.00;101152.13;6240633;23;20035;-71
2023/03/29 06:39:58;;;;;;;12.20;4.15;;;;;;;-1.17;100.00;101164.25;6241801;23;20016;-71
2023/03/29 06:42:25;;;;;;;16.85;4.35;;;;;;;-0.92;100.00;101153.38;6240659;23;20074;-71
2023/03/29 06:44:52;;;;;;;17.52;4.80;;;;;;;-0.98;100.00;101157.19;6242232;23;20016;-71
2023/03/29 06:47:19;;;;;;;15.45;4.60;;;;;;;-1.24;100.00;101155.78;6242639;23;20028;-71
2023/03/29 06:49:45;;;;;;;20.50;5.15;;;;;;;-0.95;100.00;101153.53;6240400;23;20452;-71
2023/03/29 06:52:12;;;;;;;14.27;4.88;;;;;;;-0.92;100.00;101148.97;6241993;23;20099;-71
2023/03/29 06:54:39;;;;;;;16.33;5.25;;;;;;;-0.92;100.00;101142.84;6242947;23;20016;-71
2023/03/29 06:57:06;;;;;;;14.02;4.30;;;;;;;-0.61;100.00;101142.16;6241226;23;20031;-71
2023/03/29 06:59:33;;;;;;;13.93;3.85;;;;;;;-0.63;100.00;101144.03;6240816;23;20020;-71
2023/03/29 07:02:01;;;;;;;19.42;4.82;;;;;;;-0.84;100.00;101143.31;6242557;23;20353;-71
2023/03/29 07:04:28;;;;;;;12.80;3.75;;;;;;;-0.63;100.00;101140.53;6241465;23;20028;-71
2023/03/29 07:07:01;;;;;;;17.45;5.00;;;;;;;-0.58;100.00;101143.78;6241484;23;20404;-71
2023/03/29 07:09:28;;;;;;;27.52;6.82;;;;;;;-0.53;100.00;101150.53;6241706;23;20099;-71
2023/03/29 07:11:57;;;;;;;14.13;4.32;;;;;;;-0.48;100.00;101151.13;6240903;23;20020;-71
2023/03/29 07:14:27;;;;;;;11.45;3.60;;;;;;;-0.30;100.00;101151.97;6241294;22;20080;-71
2023/03/29 07:16:54;;;;;;;27.77;7.00;;;;;;;-0.16;100.00;101145.97;6241581;22;20070;-71
2023/03/29 07:19:23;;;;;;;12.45;3.83;;;;;;;-0.09;100.00;101147.34;6241657;23;20361;-71
2023/03/29 07:21:53;;;;;;;21.17;3.95;;;;;;;-0.06;100.00;101149.81;6241392;23;20091;-71
2023/03/29 07:24:20;;;;;;;15.10;4.28;;;;;;;-0.01;100.00;101141.69;6240989;23;20453;-71
2023/03/29 07:26:51;;;;;;;131.88;24.00;;;;;;;0.15;100.00;101146.97;6239171;23;20023;-71
2023/03/29 07:29:30;;;;;;;21.35;4.03;;;;;;;0.07;100.00;101141.28;6240940;22;20453;-71
2023/03/29 07:31:56;;;;;;;16.20;3.83;;;;;;;0.13;100.00;101143.59;6240458;23;20090;-71
2023/03/29 07:34:23;;;;;;;18.23;4.30;;;;;;;0.25;100.00;101148.19;6212877;23;20100;-71
2023/03/29 07:36:50;;;;;;;15.98;4.05;;;;;;;0.39;100.00;101143.00;6230148;23;20356;-71
2023/03/29 07:39:17;;;;;;;13.90;3.58;;;;;;;0.51;100.00;101138.84;6239708;23;20043;-72
2023/03/29 07:41:43;;;;;;;18.15;4.78;;;;;;;0.77;100.00;101140.03;6241863;23;20040;-72
2023/03/29 07:44:10;;;;;;;27.65;6.40;;;;;;;0.75;100.00;101141.91;6242747;23;20024;-71
2023/03/29 07:46:36;;;;;;;18.58;4.90;;;;;;;1.08;100.00;101138.28;6240511;22;20016;-71
2023/03/29 07:49:03;;;;;;;13.82;3.97;;;;;;;1.32;100.00;101143.91;6241797;23;20032;-71
2023/03/29 07:51:30;;;;;;;19.38;3.85;;;;;;;1.34;100.00;101134.97;6241732;23;20024;-72
2023/03/29 07:53:57;;;;;;;32.78;5.65;;;;;;;1.61;100.00;101127.19;6240890;23;20036;-72
2023/03/29 07:56:23;;;;;;;22.85;3.80;;;;;;;1.48;100.00;101126.22;6240447;23;20492;-71
2023/03/29 07:58:50;;;;;;;14.13;4.38;;;;;;;1.53;100.00;101132.06;6239347;23;20046;-71
2023/03/29 08:01:18;;;;;;;46.45;8.75;;;;;;;1.54;100.00;101127.63;6240242;23;20115;-71
2023/03/29 08:03:45;;;;;;;14.50;4.43;;;;;;;1.58;100.00;101134.47;6240359;23;20529;-72
2023/03/29 08:06:14;;;;;;;19.13;3.90;;;;;;;1.55;100.00;101132.00;6241464;23;20024;-71
2023/03/29 08:08:41;;;;;;;14.13;4.22;;;;;;;2.10;100.00;101137.44;6241096;23;20058;-72
2023/03/29 08:11:09;;;;;;;14.18;4.22;;;;;;;2.62;99.96;101135.94;6234963;23;20028;-71
2023/03/29 08:13:36;;;;;;;13.80;3.50;;;;;;;2.85;94.46;101139.75;6240478;23;20020;-72
2023/03/29 08:16:04;;;;;;;10.20;3.58;;;;;;;3.00;91.54;101137.91;6241030;23;20024;-71
2023/03/29 08:18:31;;;;;;;17.15;5.30;;;;;;;2.87;92.49;101141.34;6240169;23;20055;-71
2023/03/29 08:21:00;;;;;;;25.00;5.53;;;;;;;3.15;93.60;101135.06;6237934;23;20099;-71
2023/03/29 08:23:27;;;;;;;13.88;3.72;;;;;;;3.64;86.68;101138.88;6240663;23;20449;-71
2023/03/29 08:25:54;;;;;;;15.82;3.42;;;;;;;3.50;87.20;101131.84;6240721;23;20070;-74
2023/03/29 08:28:21;;;;;;;17.67;4.55;;;;;;;3.60;89.78;101124.13;6248615;22;20016;-74
2023/03/29 08:30:48;;;;;;;10.50;3.97;;;;;;;3.93;85.96;101115.63;6248098;23;20077;-74
2023/03/29 08:33:15;;;;;;;24.42;4.90;;;;;;;3.73;85.83;101119.66;6248670;23;20035;-74
2023/03/29 08:35:42;;;;;;;18.52;4.40;;;;;;;4.01;83.63;101110.63;6249862;23;20020;-74
2023/03/29 08:38:10;;;;;;;25.90;5.13;;;;;;;4.32;81.00;101111.09;6250629;23;20016;-74
2023/03/29 08:40:36;;;;;;;16.88;3.47;;;;;;;4.25;80.21;101102.72;6246925;23;20054;-74
2023/03/29 08:43:25;;;;;;;10.77;3.70;;;;;;;4.54;80.35;101110.41;6250214;23;20144;-74
2023/03/29 08:46:03;;;;;;;18.73;4.07;;;;;;;4.14;84.20;101102.66;6251141;23;20044;-74
2023/03/29 08:48:40;;;;;;;15.05;3.67;;;;;;;4.57;82.10;101100.41;6250632;23;20035;-74
2023/03/29 08:51:26;;;;;;;22.10;4.22;;;;;;;5.11;78.10;101104.44;6251003;23;20078;-74
2023/03/29 08:53:58;;;;;;;13.10;4.18;;;;;;;4.95;77.87;101106.53;6249442;22;20033;-74
2023/03/29 08:56:32;;;;;;;17.95;3.97;;;;;;;5.12;78.34;101095.47;6249596;23;20102;-74
2023/03/29 08:59:00;;;;;;;9.82;3.75;;;;;;;5.57;74.59;101106.25;6248698;23;20024;-75
2023/03/29 09:01:33;;;;;;;8.45;3.13;;;;;;;5.90;73.45;101108.06;6249855;23;20047;-74
2023/03/29 09:04:17;;;;;;;20.40;4.68;;;;;;;6.46;71.46;101097.44;6250250;23;20016;-74
2023/03/29 09:06:44;;;;;;;12.75;4.75;;;;;;;6.65;67.96;101095.91;6252467;22;20449;-74
2023/03/29 09:09:14;;;;;;;15.38;4.18;;;;;;;6.84;68.51;101089.91;6245453;23;20088;-75
2023/03/29 09:12:01;;;;;;;10.77;4.40;;;;;;;6.89;68.17;101096.56;6250267;23;20031;-75
2023/03/29 09:14:53;;;;;;;19.45;4.47;;;;;;;6.88;67.73;101081.53;6245895;23;20103;-72
2023/03/29 09:17:22;;;;;;;;;;;;;;;7.34;65.85;101074.16;6240320;23;20095;-72
2023/03/29 09:20:25;;;;;;;7.38;3.20;;;;;;;6.21;69.40;101074.53;6240194;23;19931;-72
2023/03/29 09:22:59;;;;;;;8.73;3.35;;;;;;;6.62;70.88;101082.84;6241673;23;20019;-72
2023/03/29 09:25:51;;;;;;;24.00;3.75;;;;;;;7.32;67.75;101073.44;6242413;23;20031;-72
2023/03/29 09:28:37;;;;;;;15.73;2.90;;;;;;;7.74;65.44;101076.06;6242270;22;20098;-70
2023/03/29 09:31:06;;;;;;;17.63;4.22;;;;;;;8.07;62.98;101072.31;6243209;23;20062;-72
2023/03/29 09:33:51;;;;;;;13.23;3.90;;;;;;;7.70;62.47;101075.47;6241697;23;20461;-72
2023/03/29 09:36:23;;;;;;;20.30;4.32;;;;;;;8.91;60.71;101071.88;6239911;23;20024;-70
2023/03/29 09:38:53;;;;;;;7.90;3.08;;;;;;;8.41;59.03;101072.81;6241086;23;20055;-72
2023/03/29 09:41:25;;;;;;;12.43;3.53;;;;;;;8.61;59.92;101071.88;6243181;23;20024;-72
2023/03/29 09:43:54;;;;;;;16.10;3.17;;;;;;;8.15;59.68;101069.78;6242856;23;20024;-72
2023/03/29 09:46:40;;;;;;;13.82;3.88;;;;;;;8.78;59.32;101056.09;6241218;22;20016;-72
2023/03/29 09:49:13;;;;;;;7.70;2.95;;;;;;;8.38;59.96;101060.56;6243068;23;20032;-72
2023/03/29 09:51:45;;;;;;;15.98;3.05;;;;;;;8.77;59.51;101057.09;6242438;23;20024;-72
2023/03/29 09:54:12;;;;;;;9.27;2.95;;;;;;;8.86;58.84;101064.28;6242373;23;20099;-72
2023/03/29 09:56:39;;;;;;;12.50;3.10;;;;;;;9.06;58.17;101054.44;6236047;23;20350;-72
2023/03/29 09:59:09;;;;;;;11.60;3.45;;;;;;;7.98;61.29;101044.56;6202363;22;20039;-71
2023/03/29 10:01:38;;;;;;;9.20;2.95;;;;;;;8.73;58.54;101045.00;6242207;23;20568;-72
2023/03/29 10:04:07;;;;;;;36.85;8.25;;;;;;;8.97;58.77;101055.28;6242191;23;20476;-72
2023/03/29 10:06:35;;;;;;;7.72;3.60;;;;;;;7.83;60.83;101043.22;6241991;23;20021;-71
2023/03/29 10:09:03;;;;;;;16.40;3.10;;;;;;;7.90;61.28;101044.41;6241378;23;20020;-72
2023/03/29 10:11:37;;;;;;;8.15;2.83;;;;;;;8.67;60.28;101037.53;6243218;23;20024;-72
2023/03/29 10:14:11;;;;;;;7.78;3.05;;;;;;;9.16;58.31;101031.19;6225158;22;20031;-72
2023/03/29 10:16:44;;;;;;;13.40;3.55;;;;;;;9.91;55.79;101029.41;6219880;23;20039;-72
2023/03/29 10:19:49;;;;;;;11.48;3.97;;;;;;;9.16;57.70;101019.59;6241651;22;20016;-72
2023/03/29 10:22:23;;;;;;;12.77;3.53;;;;;;;8.82;58.66;101020.09;6215522;23;20484;-72
2023/03/29 10:24:51;;;;;;;12.90;3.38;;;;;;;9.57;58.01;101013.03;6239956;23;20020;-70
2023/03/29 10:27:24;;;;;;;7.32;2.90;;;;;;;10.50;54.85;101012.00;6230336;23;20020;-71
2023/03/29 10:29:52;;;;;;;12.85;3.40;;;;;;;8.54;59.31;101011.06;6240391;22;20066;-73
2023/03/29 10:32:34;;;;;;;8.05;3.42;;;;;;;8.13;61.05;101011.16;6241527;22;20345;-72
2023/03/29 10:35:11;;;;;;;;;;;;;;;8.45;60.70;101001.22;6241349;23;20031;-70
2023/03/29 10:37:42;;;;;;;12.35;3.22;;;;;;;7.99;61.81;101006.19;6240980;23;19920;-72
2023/03/29 10:40:27;;;;;;;6.05;2.88;;;;;;;7.39;64.60;101005.19;6241131;23;20023;-72
2023/03/29 10:43:09;;;;;;;8.23;3.67;;;;;;;7.78;65.41;101003.56;6240974;23;20086;-72
2023/03/29 10:45:38;;;;;;;12.55;3.00;;;;;;;7.68;65.85;101001.84;6241348;23;20030;-72
2023/03/29 10:48:08;;;;;;;31.13;3.63;;;;;;;7.90;65.93;100997.16;6240319;23;20453;-71
2023/03/29 10:50:38;;;;;;;12.77;3.35;;;;;;;7.56;66.30;100993.91;6240785;23;20405;-71
2023/03/29 10:53:29;;;;;;;11.05;3.90;;;;;;;7.11;67.78;100991.56;6240546;23;20444;-72
2023/03/29 10:56:21;;;;;;;19.83;4.25;;;;;;;7.27;69.71;100984.94;6221915;23;20026;-71
2023/03/29 10:59:04;;;;;;;20.85;5.15;;;;;;;7.73;67.74;100983.56;6242070;23;20598;-72
2023/03/29 11:02:01;;;;;;;5.15;3.08;;;;;;;6.93;69.99;100975.31;6240536;23;20024;-71
2023/03/29 11:04:58;;;;;;;8.25;3.40;;;;;;;6.66;72.56;100980.31;6239074;23;20058;-71
2023/03/29 11:07:45;;;;;;;6.57;2.97;;;;;;;6.69;73.33;100967.56;6245461;23;20024;-74
2023/03/29 11:10:49;;;;;;;21.23;4.30;;;;;;;6.93;71.96;100964.63;6247881;23;20076;-74
2023/03/29 11:13:20;;;;;;;11.90;3.00;;;;;;;6.85;71.13;100969.78;6230061;23;20349;-74
2023/03/29 11:15:56;;;;;;;5.90;3.30;;;;;;;7.12;71.19;100971.94;6247327;23;20354;-73
2023/03/29 11:18:55;;;;;;;6.70;2.83;;;;;;;6.34;73.89;100975.00;6242415;23;20043;-74
2023/03/29 11:21:40;;;;;;;9.57;3.20;;;;;;;6.15;77.28;100967.63;6243982;23;20365;-73
2023/03/29 11:24:36;;;;;;;11.18;4.22;;;;;;;6.88;75.34;100960.69;6246913;23;20027;-74
2023/03/29 11:27:18;;;;;;;10.63;3.95;;;;;;;6.56;77.11;100964.22;6246332;23;20417;-73
2023/03/29 11:29:47;;;;;;;8.60;3.38;;;;;;;6.67;75.74;100964.19;6247174;22;20048;-73
2023/03/29 11:32:37;;;;;;;10.00;3.42;;;;;;;6.63;76.16;100961.88;6247913;23;20095;-73
2023/03/29 11:35:22;;;;;;;4.40;2.83;;;;;;;6.50;76.61;100950.59;6245799;23;20054;-72
2023/03/29 11:38:07;;;;;;;5.93;3.22;;;;;;;7.31;73.17;100940.97;6247511;23;20028;-73